| time (UTC) | temp C | wind direction | speed KPH | gust KPH | rain 1hr cm | rain 24hr cm | rain mn cm | humidity % | barometer mb |
| 20260509101535 | 10 | 167 | 29.0 | 46.7 | 0.00 | 0.00 | 0.00 | 89 | 1001.5 |
| 20260509100022 | 10 | 194 | 32.2 | 45.1 | 0.00 | 0.00 | 0.00 | 90 | 1001.7 |
| 20260509094522 | 10 | 188 | 32.2 | 48.3 | 0.00 | 0.00 | 0.00 | 89 | 1001.8 |
| 20260509093028 | 10 | 187 | 27.4 | 43.5 | 0.00 | 0.00 | 0.00 | 89 | 1002.1 |
| 20260509091521 | 10 | 204 | 24.1 | 40.2 | 0.00 | 0.00 | 0.00 | 88 | 1002.4 |
| 20260509090026 | 10 | 189 | 25.7 | 43.5 | 0.00 | 0.00 | 0.00 | 88 | 1002.6 |
| 20260509084527 | 10 | 175 | 25.7 | 41.8 | 0.00 | 0.00 | 0.00 | 88 | 1002.6 |
| 20260509083023 | 10 | 190 | 25.7 | 37.0 | 0.00 | 0.00 | 0.00 | 88 | 1002.8 |
| 20260509081531 | 10 | 202 | 22.5 | 38.6 | 0.00 | 0.00 | 0.00 | 87 | 1002.9 |
| 20260509080015 | 10 | 192 | 22.5 | 33.8 | 0.00 | 0.00 | 0.00 | 88 | 1002.9 |
| 20260509074525 | 10 | 180 | 24.1 | 35.4 | 0.00 | 0.00 | 0.00 | 87 | 1003.1 |
| 20260509073028 | 10 | 186 | 22.5 | 35.4 | 0.00 | 0.00 | 0.00 | 87 | 1003.2 |
| 20260509071520 | 10 | 192 | 22.5 | 35.4 | 0.00 | 0.00 | 0.00 | 86 | 1003.4 |
| 20260509070026 | 11 | 202 | 20.9 | 33.8 | 0.00 | 0.00 | 0.00 | 84 | 1003.6 |
| 20260509064515 | 11 | 202 | 24.1 | 41.8 | 0.00 | 0.00 | 0.00 | 82 | 1003.9 |
| 20260509063023 | 12 | 197 | 22.5 | 35.4 | 0.00 | 0.00 | 0.00 | 79 | 1004.3 |
| 20260509061527 | 12 | 183 | 20.9 | 35.4 | 0.00 | 0.00 | 0.00 | 73 | 1004.2 |
| 20260509060016 | 12 | 194 | 22.5 | 33.8 | 0.00 | 0.00 | 0.00 | 67 | 1004.4 |
| 20260509054524 | 13 | 180 | 20.9 | 32.2 | 0.00 | 0.00 | 0.00 | 61 | 1004.5 |
| 20260509053012 | 13 | 196 | 16.1 | 33.8 | 0.00 | 0.00 | 0.00 | 51 | 1004.5 |
| 20260509051521 | 13 | 171 | 20.9 | 35.4 | 0.00 | 0.00 | 0.00 | 48 | 1004.6 |
| 20260509050028 | 13 | 178 | 19.3 | 32.2 | 0.00 | 0.00 | 0.00 | 47 | 1004.5 |
| 20260509044514 | 13 | 167 | 19.3 | 32.2 | 0.00 | 0.00 | 0.00 | 45 | 1004.6 |
| 20260509043027 | 13 | 146 | 17.7 | 32.2 | 0.00 | 0.00 | 0.00 | 40 | 1004.7 |
| 20260509041526 | 13 | 163 | 16.1 | 30.6 | 0.00 | 0.00 | 0.00 | 44 | 1004.8 |
| 20260509040020 | 13 | 161 | 17.7 | 27.4 | 0.00 | 0.00 | 0.00 | 52 | 1005.0 |
| 20260509034539 | 13 | 164 | 16.1 | 29.0 | 0.00 | 0.00 | 0.00 | 51 | 1005.2 |
| 20260509033013 | 13 | 171 | 14.5 | 25.7 | 0.00 | 0.00 | 0.00 | 51 | 1005.5 |
| 20260509031524 | 13 | 157 | 14.5 | 30.6 | 0.00 | 0.00 | 0.00 | 47 | 1005.6 |
| 20260509030027 | 13 | 159 | 12.9 | 24.1 | 0.00 | 0.00 | 0.00 | 33 | 1005.7 |
| 20260509024516 | 13 | 177 | 11.3 | 24.1 | 0.00 | 0.00 | 0.00 | 30 | 1005.9 |
| 20260509023031 | 13 | 167 | 14.5 | 25.7 | 0.00 | 0.00 | 0.00 | 28 | 1005.9 |
| 20260509021527 | 13 | 175 | 12.9 | 19.3 | 0.00 | 0.00 | 0.00 | 27 | 1006.1 |
| 20260509020019 | 13 | 152 | 9.7 | 16.1 | 0.00 | 0.00 | 0.00 | 26 | 1006.2 |
| 20260509014524 | 13 | 148 | 6.4 | 16.1 | 0.00 | 0.00 | 0.00 | 26 | 1006.1 |
| 20260509013028 | 12 | 155 | 6.4 | 14.5 | 0.00 | 0.00 | 0.00 | 28 | 1006.0 |
| 20260509011524 | 12 | 146 | 3.2 | 8.0 | 0.00 | 0.00 | 0.00 | 32 | 1006.0 |
| 20260509010033 | 12 | 177 | 0.0 | 1.6 | 0.00 | 0.00 | 0.00 | 31 | 1006.1 |
| 20260509004531 | 12 | 167 | 6.4 | 12.9 | 0.00 | 0.00 | 0.00 | 66 | 1006.0 |
| 20260509003025 | 14 | 200 | 3.2 | 8.0 | 0.00 | 0.00 | 0.00 | 48 | 1006.1 |
| 20260509001510 | 13 | 194 | 9.7 | 19.3 | 0.00 | 0.00 | 0.00 | 45 | 1006.2 |
| 20260509000020 | 13 | 180 | 11.3 | 22.5 | 0.00 | 0.00 | 0.00 | 47 | 1006.4 |
| 20260508234506 | 13 | 193 | 14.5 | 25.7 | 0.00 | 0.00 | 0.00 | 39 | 1006.6 |
| 20260508233014 | 13 | 215 | 12.9 | 24.1 | 0.00 | 0.00 | 0.00 | 37 | 1006.9 |
| 20260508231523 | 13 | 175 | 16.1 | 27.4 | 0.00 | 0.00 | 0.00 | 35 | 1007.0 |
| 20260508230008 | 12 | 194 | 14.5 | 22.5 | 0.00 | 0.00 | 0.00 | 46 | 1007.2 |
| 20260508224522 | 12 | 171 | 11.3 | 20.9 | 0.00 | 0.00 | 0.00 | 52 | 1007.4 |
| 20260508223004 | 12 | 182 | 11.3 | 19.3 | 0.00 | 0.00 | 0.00 | 56 | 1007.5 |
| 20260508221514 | 12 | 190 | 12.9 | 19.3 | 0.00 | 0.00 | 0.00 | 59 | 1007.7 |
| 20260508220027 | 12 | 200 | 9.7 | 17.7 | 0.00 | 0.00 | 0.00 | 58 | 1007.9 |
| 20260508214509 | 12 | 195 | 9.7 | 17.7 | 0.00 | 0.00 | 0.00 | 62 | 1007.9 |
| 20260508213018 | 11 | 194 | 9.7 | 14.5 | 0.00 | 0.00 | 0.00 | 63 | 1008.1 |
| 20260508211525 | 11 | 204 | 9.7 | 20.9 | 0.00 | 0.00 | 0.00 | 64 | 1008.1 |
| 20260508210011 | 12 | 189 | 11.3 | 17.7 | 0.00 | 0.00 | 0.00 | 64 | 1008.3 |
| 20260508204520 | 12 | 208 | 8.0 | 16.1 | 0.00 | 0.00 | 0.00 | 67 | 1008.5 |
| 20260508203025 | 12 | 207 | 8.0 | 16.1 | 0.00 | 0.00 | 0.00 | 67 | 1008.7 |
| 20260508201513 | 12 | 213 | 8.0 | 14.5 | 0.00 | 0.00 | 0.00 | 67 | 1008.7 |
| 20260508200023 | 11 | 207 | 9.7 | 14.5 | 0.00 | 0.00 | 0.00 | 69 | 1009.0 |
| 20260508194513 | 11 | 224 | 6.4 | 16.1 | 0.00 | 0.00 | 0.00 | 71 | 1009.2 |
| 20260508193035 | 11 | 187 | 8.0 | 14.5 | 0.00 | 0.00 | 0.00 | 75 | 1009.5 |
| 20260508191524 | 11 | 215 | 9.7 | 17.7 | 0.00 | 0.00 | 0.00 | 76 | 1009.6 |
| 20260508190024 | 11 | 182 | 11.3 | 20.9 | 0.00 | 0.00 | 0.00 | 77 | 1009.7 |
| 20260508184529 | 10 | 200 | 11.3 | 17.7 | 0.00 | 0.00 | 0.00 | 79 | 1009.8 |
| 20260508183036 | 10 | 207 | 8.0 | 14.5 | 0.00 | 0.00 | 0.00 | 77 | 1009.9 |
| 20260508181519 | 11 | 219 | 8.0 | 14.5 | 0.00 | 0.00 | 0.00 | 74 | 1010.1 |
| 20260508180026 | 11 | 200 | 8.0 | 14.5 | 0.00 | 0.00 | 0.00 | 75 | 1010.2 |
| 20260508174510 | 10 | 188 | 9.7 | 14.5 | 0.00 | 0.00 | 0.00 | 76 | 1010.3 |
| 20260508173020 | 11 | 200 | 9.7 | 14.5 | 0.00 | 0.00 | 0.00 | 76 | 1010.6 |
| 20260508171526 | 11 | 213 | 8.0 | 12.9 | 0.00 | 0.00 | 0.00 | 75 | 1010.6 |
| 20260508170012 | 11 | 171 | 8.0 | 14.5 | 0.00 | 0.00 | 0.00 | 75 | 1010.8 |
| 20260508164528 | 11 | 195 | 8.0 | 16.1 | 0.00 | 0.00 | 0.00 | 78 | 1011.3 |
| 20260508163031 | 10 | 205 | 11.3 | 14.5 | 0.00 | 0.00 | 0.00 | 78 | 1011.3 |
| 20260508161516 | 11 | 213 | 9.7 | 14.5 | 0.00 | 0.00 | 0.00 | 77 | 1011.4 |
| 20260508160028 | 10 | 219 | 8.0 | 19.3 | 0.00 | 0.00 | 0.00 | 79 | 1011.3 |
| 20260508154526 | 10 | 216 | 8.0 | 14.5 | 0.00 | 0.00 | 0.00 | 79 | 1011.2 |
| 20260508153030 | 10 | 208 | 9.7 | 16.1 | 0.00 | 0.00 | 0.00 | 80 | 1011.4 |
| 20260508151503 | 10 | 209 | 9.7 | 14.5 | 0.00 | 0.00 | 0.00 | 81 | 1011.4 |
| 20260508150016 | 10 | 185 | 11.3 | 20.9 | 0.00 | 0.00 | 0.00 | 82 | 1011.4 |
| 20260508144528 | 10 | 198 | 9.7 | 16.1 | 0.00 | 0.00 | 0.00 | 82 | 1011.7 |
| 20260508143010 | 10 | 208 | 9.7 | 20.9 | 0.00 | 0.00 | 0.00 | 80 | 1011.5 |
| 20260508141516 | 10 | 200 | 11.3 | 19.3 | 0.00 | 0.00 | 0.00 | 79 | 1011.5 |
| 20260508140027 | 9 | 196 | 12.9 | 17.7 | 0.00 | 0.00 | 0.00 | 79 | 1011.5 |
| 20260508134512 | 9 | 211 | 11.3 | 16.1 | 0.00 | 0.00 | 0.00 | 78 | 1011.5 |
| 20260508133025 | 9 | 204 | 8.0 | 16.1 | 0.00 | 0.00 | 0.00 | 80 | 1011.4 |
| 20260508131525 | 8 | 182 | 8.0 | 16.1 | 0.00 | 0.00 | 0.00 | 81 | 1011.4 |
| 20260508130029 | 8 | 209 | 8.0 | 14.5 | 0.00 | 0.00 | 0.00 | 81 | 1011.7 |
| 20260508124521 | 8 | 179 | 6.4 | 16.1 | 0.00 | 0.00 | 0.00 | 80 | 1011.7 |
| 20260508123014 | 7 | 182 | 8.0 | 12.9 | 0.00 | 0.00 | 0.00 | 80 | 1011.7 |
| 20260508121521 | 7 | 155 | 4.8 | 8.0 | 0.00 | 0.00 | 0.00 | 79 | 1011.7 |
| 20260508120025 | 6 | 167 | 4.8 | 6.4 | 0.00 | 0.00 | 0.00 | 78 | 1011.4 |
| 20260508114512 | 5 | 62 | 0.0 | 3.2 | 0.00 | 0.00 | 0.00 | 74 | 1011.4 |
| 20260508113022 | 4 | 62 | 0.0 | 3.2 | 0.00 | 0.00 | 0.00 | 75 | 1011.3 |
| 20260508111525 | 3 | 62 | 0.0 | 0.0 | 0.00 | 0.00 | 0.00 | 75 | 1011.1 |
| 20260508110016 | 3 | 62 | 0.0 | 0.0 | 0.00 | 0.00 | 0.00 | 76 | 1011.1 |
| 20260508104524 | 3 | 62 | 0.0 | 1.6 | 0.00 | 0.00 | 0.00 | 74 | 1011.0 |
| 20260508103034 | 3 | 62 | 0.0 | 0.0 | 0.00 | 0.00 | 0.00 | 74 | 1010.8 |